Time;durP1;ratioP1;P1;durP2;ratioP2;P2;SDS_P1;SDS_P2;PMS_P1;PMS_P2;Temp;Humidity;BMP_temperature;BMP_pressure;BME280_temperature;BME280_humidity;BME280_pressure;Samples;Min_cycle;Max_cycle;Signal;HPM_P1;HPM_P2
2021/05/21 00:00:40;;;;;;;9.27;6.93;;;;;;;17.61;49.75;100453.19;5031673;28;20032;-80
2021/05/21 00:03:06;;;;;;;10.38;6.80;;;;;;;17.72;50.77;100440.13;5048928;28;20024;-80
2021/05/21 00:05:32;;;;;;;6.82;5.80;;;;;;;17.75;50.11;100440.59;5049400;28;20029;-79
2021/05/21 00:07:57;;;;;;;8.45;6.70;;;;;;;17.84;49.75;100425.88;5051820;28;20037;-79
2021/05/21 00:10:22;;;;;;;7.25;5.18;;;;;;;17.87;49.93;100421.94;5030692;28;20029;-79
2021/05/21 00:12:48;;;;;;;8.38;6.78;;;;;;;17.83;49.64;100412.50;5049384;28;20504;-79
2021/05/21 00:15:14;;;;;;;7.50;5.70;;;;;;;17.88;49.96;100410.06;5031562;28;20021;-79
2021/05/21 00:17:40;;;;;;;9.23;6.32;;;;;;;17.74;49.77;100400.84;5049100;28;20110;-80
2021/05/21 00:20:06;;;;;;;8.23;6.50;;;;;;;17.72;50.88;100400.19;5049288;28;20115;-80
2021/05/21 00:22:31;;;;;;;10.55;6.38;;;;;;;17.50;50.58;100401.16;5030964;28;20032;-80
2021/05/21 00:24:57;;;;;;;6.20;5.60;;;;;;;17.60;49.92;100396.25;5049361;28;20033;-80
2021/05/21 00:27:23;;;;;;;9.18;6.70;;;;;;;17.62;49.74;100384.16;5051015;28;20033;-80
2021/05/21 00:29:48;;;;;;;6.85;5.50;;;;;;;17.74;49.59;100379.09;5030946;28;20079;-80
2021/05/21 00:32:13;;;;;;;11.05;5.65;;;;;;;17.48;49.71;100376.91;5030906;28;20388;-80
2021/05/21 00:34:41;;;;;;;9.07;6.15;;;;;;;17.28;51.01;100373.06;5049623;28;20473;-80
2021/05/21 00:37:09;;;;;;;7.07;5.68;;;;;;;17.02;50.92;100368.97;5048644;28;20409;-80
2021/05/21 00:39:34;;;;;;;8.02;6.53;;;;;;;17.49;50.27;100366.88;5049386;28;20044;-80
2021/05/21 00:41:59;;;;;;;7.30;6.05;;;;;;;17.19;50.34;100372.31;5049397;28;20029;-79
2021/05/21 00:44:25;;;;;;;7.75;6.22;;;;;;;17.20;51.06;100358.56;5048940;28;20024;-80
2021/05/21 00:46:51;;;;;;;6.38;5.72;;;;;;;16.84;51.57;100360.34;5030962;28;20064;-80
2021/05/21 00:49:19;;;;;;;9.15;6.00;;;;;;;17.30;50.85;100357.44;5030623;28;20112;-80
2021/05/21 00:51:45;;;;;;;7.90;5.40;;;;;;;16.92;50.27;100354.78;5030433;28;20051;-80
2021/05/21 00:54:13;;;;;;;11.43;6.20;;;;;;;17.18;50.03;100355.19;5049054;28;20112;-80
2021/05/21 00:56:39;;;;;;;7.88;6.75;;;;;;;17.04;50.22;100342.44;5048906;28;20103;-80
2021/05/21 00:59:04;;;;;;;8.23;6.05;;;;;;;16.98;50.32;100341.28;5030604;28;20469;-79
2021/05/21 01:01:31;;;;;;;11.65;7.82;;;;;;;17.19;50.41;100335.09;5049956;28;20036;-79
2021/05/21 01:03:58;;;;;;;8.77;5.80;;;;;;;17.17;49.55;100326.31;5049127;28;20033;-79
2021/05/21 01:06:23;;;;;;;7.70;6.10;;;;;;;16.88;50.38;100319.00;5048557;28;20435;-79
2021/05/21 01:08:48;;;;;;;12.25;8.30;;;;;;;17.02;50.53;100316.47;5030631;28;20039;-80
2021/05/21 01:11:14;;;;;;;10.05;7.78;;;;;;;16.95;49.66;100309.06;5048506;28;20037;-80
2021/05/21 01:13:39;;;;;;;8.70;7.90;;;;;;;17.00;50.10;100309.38;5048701;28;20028;-80
2021/05/21 01:16:06;;;;;;;8.50;7.35;;;;;;;16.93;50.49;100292.16;5048533;28;20044;-80
2021/05/21 01:18:31;;;;;;;9.73;8.73;;;;;;;17.02;49.85;100278.44;5048807;28;20461;-80
2021/05/21 01:20:57;;;;;;;12.93;10.98;;;;;;;16.66;51.48;100274.59;5050137;28;20021;-80
2021/05/21 01:23:23;;;;;;;11.57;9.98;;;;;;;16.64;51.46;100270.38;5052090;28;20112;-80
2021/05/21 01:25:48;;;;;;;11.85;10.65;;;;;;;16.68;51.43;100271.69;5034448;28;20419;-79
2021/05/21 01:28:15;;;;;;;9.70;8.75;;;;;;;16.76;51.11;100258.06;5034063;28;20028;-80
2021/05/21 01:30:41;;;;;;;16.00;11.68;;;;;;;17.00;50.26;100252.31;5052447;28;20032;-79
2021/05/21 01:33:09;;;;;;;15.15;11.45;;;;;;;16.99;50.55;100245.22;5053276;28;20028;-79
2021/05/21 01:35:35;;;;;;;13.73;11.38;;;;;;;16.99;50.54;100230.78;5052524;28;20421;-80
2021/05/21 01:38:01;;;;;;;16.05;12.00;;;;;;;16.79;51.37;100230.53;5052049;28;20036;-79
2021/05/21 01:40:28;;;;;;;17.40;12.00;;;;;;;16.82;50.56;100227.44;5033732;28;20116;-80
2021/05/21 01:42:55;;;;;;;15.32;10.13;;;;;;;17.07;50.74;100216.25;5034101;28;20124;-80
2021/05/21 01:45:21;;;;;;;11.27;9.15;;;;;;;16.87;50.59;100216.84;5051908;28;20095;-80
2021/05/21 01:47:47;;;;;;;16.08;13.43;;;;;;;16.95;50.50;100211.28;5052392;28;20128;-81
2021/05/21 01:50:14;;;;;;;19.52;13.63;;;;;;;16.83;51.45;100201.94;5052342;28;20033;-80
2021/05/21 01:52:39;;;;;;;14.18;12.70;;;;;;;17.00;50.97;100202.59;5051687;28;20397;-80
2021/05/21 01:55:05;;;;;;;13.75;12.27;;;;;;;16.87;51.09;100197.00;5033453;28;20029;-80
2021/05/21 01:57:32;;;;;;;16.42;11.40;;;;;;;17.12;50.43;100183.91;5052042;28;20442;-80
2021/05/21 01:59:57;;;;;;;19.15;16.55;;;;;;;16.98;51.16;100183.75;5051523;28;20035;-80
2021/05/21 02:02:22;;;;;;;18.73;16.70;;;;;;;16.97;51.79;100171.19;5051419;28;20108;-79
2021/05/21 02:04:48;;;;;;;21.73;16.27;;;;;;;16.91;51.33;100163.81;5033373;28;20227;-80
2021/05/21 02:07:15;;;;;;;13.75;11.77;;;;;;;17.10;50.33;100164.22;5051085;28;20040;-80
2021/05/21 02:09:57;;;;;;;15.23;13.63;;;;;;;16.87;50.75;100167.13;5056468;28;20088;-80
2021/05/21 02:12:22;;;;;;;17.98;16.05;;;;;;;16.69;52.59;100148.50;5051982;28;20078;-80
2021/05/21 02:14:48;;;;;;;20.67;17.48;;;;;;;16.90;51.47;100148.56;5051698;28;20457;-81
2021/05/21 02:17:13;;;;;;;19.05;15.57;;;;;;;16.93;51.15;100140.03;5033451;28;20441;-79
2021/05/21 02:19:38;;;;;;;21.00;17.50;;;;;;;16.94;51.13;100139.00;5051574;28;20037;-80
2021/05/21 02:22:06;;;;;;;17.23;15.40;;;;;;;16.86;51.94;100133.66;5051012;28;20078;-80
2021/05/21 02:24:32;;;;;;;21.88;17.95;;;;;;;16.92;51.63;100126.63;5033075;28;20025;-80
2021/05/21 02:26:57;;;;;;;18.85;16.88;;;;;;;16.97;51.04;100119.59;5051052;28;20374;-80
2021/05/21 02:29:22;;;;;;;20.75;17.00;;;;;;;16.84;52.07;100107.75;5051058;28;20028;-80
2021/05/21 02:31:48;;;;;;;20.58;16.35;;;;;;;16.76;51.59;100112.25;5032987;28;20033;-79
2021/05/21 02:34:13;;;;;;;17.67;15.80;;;;;;;16.89;51.31;100097.97;5033049;28;20032;-80
2021/05/21 02:36:38;;;;;;;19.80;17.25;;;;;;;16.97;50.88;100095.16;5050944;28;20167;-81
2021/05/21 02:39:04;;;;;;;21.90;19.23;;;;;;;16.94;50.83;100095.53;5032641;28;20025;-81
2021/05/21 02:41:30;;;;;;;21.98;19.08;;;;;;;16.72;51.80;100080.22;5034050;28;20044;-80
2021/05/21 02:43:55;;;;;;;21.52;19.23;;;;;;;16.66;51.87;100075.56;5051007;28;20025;-80
2021/05/21 02:46:20;;;;;;;26.73;20.77;;;;;;;16.49;52.09;100073.06;5032350;28;20378;-80
2021/05/21 02:48:46;;;;;;;22.08;17.80;;;;;;;16.70;51.98;100060.56;5050687;28;20053;-79
2021/05/21 02:51:11;;;;;;;21.50;17.20;;;;;;;16.95;51.65;100056.47;5050234;28;20029;-79
2021/05/21 02:53:37;;;;;;;20.83;18.63;;;;;;;16.65;51.34;100046.72;5050530;28;20031;-79
2021/05/21 02:56:02;;;;;;;24.20;20.75;;;;;;;16.84;51.34;100043.41;5050341;28;20112;-79
2021/05/21 02:58:27;;;;;;;20.85;18.23;;;;;;;16.94;50.84;100027.63;5050705;28;20048;-79
2021/05/21 03:00:53;;;;;;;19.25;17.10;;;;;;;16.84;51.13;100029.00;5032402;28;20078;-80
2021/05/21 03:03:18;;;;;;;20.05;17.40;;;;;;;16.90;51.22;100020.91;5050730;28;20052;-80
2021/05/21 03:05:43;;;;;;;20.77;17.85;;;;;;;16.70;51.36;100020.66;5050584;28;20086;-80
2021/05/21 03:08:09;;;;;;;23.58;20.88;;;;;;;16.71;51.82;100016.94;5031931;28;20037;-80
2021/05/21 03:10:35;;;;;;;25.70;20.10;;;;;;;16.54;52.32;100010.06;5049745;28;20516;-80
2021/05/21 03:13:00;;;;;;;21.65;16.38;;;;;;;16.78;51.15;100014.31;5051467;28;20496;-80
2021/05/21 03:15:28;;;;;;;25.60;20.33;;;;;;;16.85;51.85;100007.06;5053520;28;20053;-80
2021/05/21 03:17:53;;;;;;;21.85;19.02;;;;;;;16.75;52.62;99996.53;5050350;28;20025;-80
2021/05/21 03:20:18;;;;;;;24.55;20.98;;;;;;;16.73;51.90;99989.56;5050077;28;20037;-80
2021/05/21 03:22:44;;;;;;;22.38;18.80;;;;;;;16.95;51.73;99983.13;5031423;28;20029;-79
2021/05/21 03:25:10;;;;;;;17.58;15.52;;;;;;;16.91;51.59;99984.56;5050127;28;20501;-80
2021/05/21 03:27:35;;;;;;;23.10;19.73;;;;;;;16.72;51.78;99986.03;5031264;28;20021;-80
2021/05/21 03:30:03;;;;;;;22.60;20.15;;;;;;;16.83;51.69;99984.69;5050363;28;20028;-80
2021/05/21 03:32:29;;;;;;;20.27;17.83;;;;;;;16.89;51.72;99978.47;5050062;28;20075;-80
2021/05/21 03:34:54;;;;;;;22.88;18.60;;;;;;;16.74;52.18;99977.66;5031821;28;20513;-80
2021/05/21 03:37:20;;;;;;;21.00;18.13;;;;;;;16.71;51.60;99967.19;5050378;28;20072;-80
2021/05/21 03:39:45;;;;;;;17.50;15.65;;;;;;;16.76;51.40;99957.47;5031414;28;20064;-80
2021/05/21 03:42:13;;;;;;;22.23;16.88;;;;;;;16.55;51.52;99957.44;5053540;28;20065;-80
2021/05/21 03:44:41;;;;;;;21.98;19.52;;;;;;;16.59;51.71;99947.91;5048336;28;20143;-80
2021/05/21 03:47:06;;;;;;;24.80;18.73;;;;;;;16.61;51.84;99940.38;5049885;28;20028;-80
2021/05/21 03:49:32;;;;;;;22.10;17.00;;;;;;;16.77;51.72;99945.59;5049502;28;20025;-79
2021/05/21 03:51:58;;;;;;;18.45;16.45;;;;;;;16.88;51.05;99930.63;5049412;28;20464;-80
2021/05/21 03:54:24;;;;;;;24.60;19.50;;;;;;;16.77;51.10;99934.75;5031340;28;20040;-81
2021/05/21 03:56:50;;;;;;;22.48;19.90;;;;;;;16.85;51.08;99932.91;5049285;28;20029;-81
2021/05/21 03:59:16;;;;;;;24.50;19.23;;;;;;;17.07;50.74;99922.84;5049427;28;20028;-80
2021/05/21 04:01:43;;;;;;;19.90;17.15;;;;;;;17.14;50.51;99916.41;5031462;28;20032;-80
2021/05/21 04:04:08;;;;;;;21.45;18.48;;;;;;;17.16;50.83;99921.63;5031153;28;20024;-80
2021/05/21 04:06:33;;;;;;;22.55;18.67;;;;;;;16.99;51.25;99919.22;5049317;28;20090;-80
2021/05/21 04:09:01;;;;;;;25.20;20.25;;;;;;;16.99;52.05;99921.94;5030851;28;20036;-80
2021/05/21 04:11:26;;;;;;;22.45;19.40;;;;;;;16.87;51.23;99909.94;5030952;28;20033;-80
2021/05/21 04:13:51;;;;;;;21.67;18.52;;;;;;;17.00;51.37;99910.03;5031086;28;20163;-80
2021/05/21 04:16:17;;;;;;;27.75;20.00;;;;;;;17.17;51.48;99913.31;5031516;28;20489;-80
2021/05/21 04:18:42;;;;;;;22.80;18.55;;;;;;;16.94;51.93;99908.13;5049479;28;20029;-80
2021/05/21 04:21:07;;;;;;;24.30;20.92;;;;;;;16.97;52.13;99901.44;5030830;28;20119;-80
2021/05/21 04:23:37;;;;;;;23.55;18.90;;;;;;;16.83;52.62;99900.50;5048663;28;20025;-80
2021/05/21 04:26:02;;;;;;;22.92;19.20;;;;;;;16.95;51.80;99900.81;5048952;28;20044;-80
2021/05/21 04:28:30;;;;;;;22.65;18.73;;;;;;;16.94;51.82;99908.13;5030771;28;20032;-80
2021/05/21 04:30:56;;;;;;;28.50;20.75;;;;;;;17.26;51.29;99913.97;5049025;28;20037;-80
2021/05/21 04:33:21;;;;;;;18.55;15.93;;;;;;;16.95;51.70;99909.78;5031428;28;20466;-80
2021/05/21 04:35:46;;;;;;;21.73;19.00;;;;;;;17.24;51.38;99918.78;5048701;28;20032;-80
2021/05/21 04:38:12;;;;;;;30.02;21.58;;;;;;;17.09;51.90;99909.91;5048835;28;20623;-80
2021/05/21 04:40:37;;;;;;;25.27;19.13;;;;;;;17.26;51.41;99921.28;5030582;28;20120;-80
2021/05/21 04:43:03;;;;;;;17.63;15.73;;;;;;;17.27;50.98;99918.38;5048870;28;20025;-80
2021/05/21 04:45:31;;;;;;;21.67;17.92;;;;;;;17.46;51.25;99914.94;5048803;28;20572;-79
2021/05/21 04:47:56;;;;;;;25.90;21.05;;;;;;;17.40;51.63;99901.31;5049204;28;20028;-79
2021/05/21 04:50:21;;;;;;;25.50;20.08;;;;;;;17.28;51.81;99900.19;5030764;28;20066;-79
2021/05/21 04:52:54;;;;;;;23.63;17.10;;;;;;;17.06;51.98;99900.25;5052245;28;20491;-79
2021/05/21 04:55:22;;;;;;;27.00;21.77;;;;;;;17.17;52.00;99904.28;5049425;28;20040;-80
2021/05/21 04:57:50;;;;;;;28.33;21.02;;;;;;;17.18;52.21;99904.09;5052646;28;20032;-80
2021/05/21 05:00:16;;;;;;;24.20;17.40;;;;;;;17.25;52.16;99892.44;5052290;28;20036;-79
2021/05/21 05:02:41;;;;;;;26.23;19.65;;;;;;;17.50;51.42;99898.22;5034520;28;20029;-79
2021/05/21 05:05:07;;;;;;;20.58;16.13;;;;;;;17.36;51.47;99883.72;5052720;28;20033;-80
2021/05/21 05:07:32;;;;;;;17.25;15.07;;;;;;;17.67;50.89;99877.81;5034179;28;20059;-80
2021/05/21 05:09:58;;;;;;;18.10;15.50;;;;;;;17.69;51.30;99878.41;5052118;28;20622;-79
2021/05/21 05:12:23;;;;;;;25.88;19.20;;;;;;;17.73;51.17;99882.44;5052438;28;20462;-80
2021/05/21 05:14:48;;;;;;;27.63;20.50;;;;;;;17.89;50.97;99878.53;5052275;28;20056;-80
2021/05/21 05:17:14;;;;;;;28.17;20.15;;;;;;;18.08;50.59;99866.84;5052882;28;20396;-80
2021/05/21 05:19:39;;;;;;;27.30;19.60;;;;;;;18.04;50.63;99859.31;5052618;28;20029;-80
2021/05/21 05:22:05;;;;;;;26.27;19.38;;;;;;;18.18;50.35;99865.63;5052541;28;20033;-80
2021/05/21 05:24:34;;;;;;;25.85;20.10;;;;;;;18.16;50.58;99848.69;5052549;28;20478;-80
2021/05/21 05:27:00;;;;;;;24.00;16.00;;;;;;;17.95;50.38;99863.28;5034241;28;20102;-80
2021/05/21 05:29:25;;;;;;;26.35;18.70;;;;;;;17.97;51.56;99859.31;5037121;28;20029;-80
2021/05/21 05:31:52;;;;;;;21.05;17.77;;;;;;;17.94;51.60;99853.44;5052637;28;20040;-80
2021/05/21 05:34:17;;;;;;;21.27;16.67;;;;;;;18.02;51.71;99856.78;5052250;28;20393;-80
2021/05/21 05:36:43;;;;;;;22.48;15.10;;;;;;;18.22;50.87;99853.28;5052179;28;20092;-80
2021/05/21 05:39:08;;;;;;;25.63;19.38;;;;;;;18.14;51.01;99852.44;5051924;28;20061;-80
2021/05/21 05:41:34;;;;;;;23.20;17.55;;;;;;;18.17;51.11;99848.47;5033609;28;20021;-80
2021/05/21 05:43:59;;;;;;;17.98;13.95;;;;;;;18.35;50.70;99839.69;5034093;28;20124;-78
2021/05/21 05:46:24;;;;;;;19.27;13.63;;;;;;;18.16;50.67;99832.34;5051221;28;20120;-78
2021/05/21 05:48:51;;;;;;;16.75;13.38;;;;;;;18.09;51.59;99835.03;5051667;28;20033;-77
2021/05/21 05:51:16;;;;;;;25.02;17.48;;;;;;;17.97;52.88;99832.13;5033581;28;20431;-78
2021/05/21 05:53:42;;;;;;;19.95;14.88;;;;;;;18.02;51.88;99818.72;5043830;28;20133;-80
2021/05/21 05:56:08;;;;;;;18.73;15.00;;;;;;;17.82;52.20;99815.97;5028113;28;20496;-80
2021/05/21 05:58:33;;;;;;;17.63;14.85;;;;;;;18.05;51.42;99825.63;5030496;28;20039;-79
2021/05/21 06:00:59;;;;;;;24.40;17.13;;;;;;;17.89;52.78;99824.13;5049284;28;20029;-79
2021/05/21 06:03:27;;;;;;;18.08;13.07;;;;;;;17.78;52.94;99816.56;5031771;28;20037;-80
2021/05/21 06:05:53;;;;;;;19.45;14.52;;;;;;;17.75;52.72;99806.91;5030730;28;20033;-80
2021/05/21 06:08:18;;;;;;;18.15;13.60;;;;;;;17.74;53.34;99801.69;5029904;28;20401;-80
2021/05/21 06:10:44;;;;;;;19.25;13.65;;;;;;;17.77;52.27;99793.97;5031540;28;20115;-80
2021/05/21 06:13:09;;;;;;;14.93;12.32;;;;;;;17.78;52.71;99795.63;5049722;28;20037;-80
2021/05/21 06:15:39;;;;;;;19.35;14.82;;;;;;;17.50;53.46;99793.03;5049671;28;20029;-80
2021/05/21 06:18:07;;;;;;;17.77;14.27;;;;;;;17.48;53.78;99778.81;5049147;28;20036;-80
2021/05/21 06:20:36;;;;;;;16.85;13.90;;;;;;;17.84;53.40;99775.78;5048278;28;20029;-80
2021/05/21 06:23:04;;;;;;;15.48;13.25;;;;;;;18.03;53.07;99776.00;5047966;28;20029;-80
2021/05/21 06:28:12;;;;;;;23.83;11.00;;;;;;;18.43;52.33;99771.44;5047846;28;20433;-80
2021/05/21 06:30:38;;;;;;;18.52;13.07;;;;;;;18.51;53.54;99764.91;5030976;28;20037;-81
2021/05/21 06:33:04;;;;;;;13.32;10.98;;;;;;;18.34;52.33;99762.63;5030793;28;20480;-80
2021/05/21 06:35:29;;;;;;;14.57;10.32;;;;;;;18.14;52.46;99768.06;5048127;28;20567;-80
2021/05/21 06:38:08;;;;;;;;;;;;;;;;;;;;;
2021/05/21 06:40:53;;;;;;;13.68;10.55;;;;;;;18.01;52.21;99767.25;5047869;28;20029;-80
2021/05/21 06:43:34;;;;;;;15.20;10.38;;;;;;;18.30;52.00;99758.63;5049559;28;20040;-80
2021/05/21 06:46:01;;;;;;;12.93;9.52;;;;;;;18.14;51.50;99759.06;5047452;28;20033;-80
2021/05/21 06:48:31;;;;;;;16.30;10.30;;;;;;;17.94;52.38;99755.50;5030560;28;20079;-80
2021/05/21 06:51:06;;;;;;;14.02;10.25;;;;;;;17.84;53.20;99737.69;5036955;28;20052;-80
2021/05/21 06:53:32;;;;;;;16.63;11.27;;;;;;;18.07;52.73;99740.03;5046254;28;20132;-80
2021/05/21 06:55:58;;;;;;;14.63;11.77;;;;;;;18.03;52.68;99735.19;5029191;28;20021;-79
2021/05/21 06:58:25;;;;;;;11.02;8.90;;;;;;;18.13;52.29;99741.91;5046976;28;20393;-80
2021/05/21 07:00:52;;;;;;;12.93;9.38;;;;;;;18.30;50.88;99733.31;5029118;28;20024;-80
2021/05/21 07:03:18;;;;;;;12.55;9.63;;;;;;;18.03;52.46;99730.63;5048544;28;20035;-80
2021/05/21 07:05:43;;;;;;;16.73;8.88;;;;;;;18.30;51.30;99725.97;5047066;28;20031;-80
2021/05/21 07:08:12;;;;;;;9.50;7.93;;;;;;;18.38;51.11;99720.31;5029201;28;20037;-80
2021/05/21 07:10:38;;;;;;;15.02;9.35;;;;;;;18.30;51.03;99722.41;5028484;28;20033;-81
2021/05/21 07:13:14;;;;;;;10.73;8.55;;;;;;;18.64;50.54;99728.66;5046927;28;20024;-81
2021/05/21 07:15:40;;;;;;;13.88;8.50;;;;;;;18.74;50.17;99729.09;5028539;28;20814;-80
2021/05/21 07:18:07;;;;;;;11.77;7.78;;;;;;;19.01;49.21;99727.13;5047515;28;20481;-80
2021/05/21 07:20:34;;;;;;;11.73;8.02;;;;;;;18.95;48.79;99730.72;5047063;28;20112;-80
2021/05/21 07:22:59;;;;;;;10.95;8.35;;;;;;;19.13;48.63;99741.75;5028691;28;20032;-81
2021/05/21 07:25:25;;;;;;;10.43;7.13;;;;;;;19.20;49.15;99728.91;5046930;28;20373;-80
2021/05/21 07:27:51;;;;;;;13.80;7.70;;;;;;;19.02;48.77;99729.63;5046013;28;20099;-80
2021/05/21 07:30:17;;;;;;;8.85;6.38;;;;;;;19.31;48.70;99726.53;5028784;28;20033;-81
2021/05/21 07:32:51;;;;;;;8.02;6.25;;;;;;;18.97;48.29;99728.59;5058239;23;20052;-83
2021/05/21 07:35:18;;;;;;;10.65;6.15;;;;;;;19.12;48.14;99720.16;5021371;28;20049;-84
2021/05/21 07:37:45;;;;;;;9.80;5.40;;;;;;;18.89;47.76;99732.41;5041944;23;20095;-83
2021/05/21 07:40:11;;;;;;;7.00;3.58;;;;;;;18.29;46.38;99726.19;5018718;28;20032;-83
2021/05/21 07:42:40;;;;;;;10.07;3.97;;;;;;;18.82;47.62;99732.44;5001329;28;20041;-83
2021/05/21 07:45:06;;;;;;;9.40;3.85;;;;;;;18.49;45.84;99723.47;5015897;28;20029;-82
2021/05/21 07:50:02;;;;;;;6.75;2.03;;;;;;;18.61;45.06;99713.59;5093855;22;20060;-83
2021/05/21 07:52:32;;;;;;;12.02;2.47;;;;;;;18.53;44.66;99714.66;5061361;28;20033;-84
2021/05/21 07:55:00;;;;;;;10.10;2.55;;;;;;;18.18;43.94;99716.78;5024777;28;20033;-80
2021/05/21 07:57:25;;;;;;;7.22;1.70;;;;;;;18.46;44.58;99711.13;5054480;28;20075;-81
2021/05/21 07:59:51;;;;;;;5.40;1.65;;;;;;;18.74;43.71;99705.41;5032016;28;20029;-81
2021/05/21 08:02:16;;;;;;;9.48;2.25;;;;;;;18.61;42.02;99689.09;5041482;28;20032;-80
2021/05/21 08:04:44;;;;;;;11.00;2.47;;;;;;;18.87;43.06;99684.63;5028351;28;20029;-80
2021/05/21 08:07:09;;;;;;;9.57;2.13;;;;;;;18.99;41.61;99674.72;5033756;28;20028;-81
2021/05/21 08:09:40;;;;;;;10.77;2.25;;;;;;;19.41;42.58;99675.13;5036048;28;20067;-80
2021/05/21 08:12:06;;;;;;;9.30;2.78;;;;;;;19.69;43.15;99677.47;5041542;28;20029;-80
2021/05/21 08:14:32;;;;;;;10.77;2.83;;;;;;;19.44;40.09;99689.16;5048791;28;20424;-80
2021/05/21 08:16:58;;;;;;;12.07;3.13;;;;;;;19.23;38.09;99690.31;5042993;28;20036;-80
2021/05/21 08:19:23;;;;;;;9.07;2.42;;;;;;;18.77;38.81;99696.81;5020497;28;20028;-80
2021/05/21 08:21:48;;;;;;;8.70;2.10;;;;;;;18.73;37.87;99690.13;5053334;28;20047;-80
2021/05/21 08:24:14;;;;;;;10.43;2.92;;;;;;;19.07;38.38;99690.84;5042987;28;20396;-81
2021/05/21 08:26:39;;;;;;;13.50;3.03;;;;;;;19.09;37.81;99682.44;5048503;28;20473;-81
2021/05/21 08:29:05;;;;;;;7.15;2.10;;;;;;;19.43;37.16;99683.91;5047124;28;20032;-80
2021/05/21 08:31:30;;;;;;;10.80;2.25;;;;;;;19.33;37.26;99676.22;5065140;28;20431;-80
2021/05/21 08:33:55;;;;;;;8.80;2.53;;;;;;;18.85;36.93;99675.81;5052909;28;20095;-80
2021/05/21 08:36:21;;;;;;;8.32;2.17;;;;;;;19.33;37.92;99684.38;5044202;28;20563;-80
2021/05/21 08:38:47;;;;;;;12.73;2.70;;;;;;;19.40;37.94;99678.88;5049760;28;20024;-80
2021/05/21 08:41:16;;;;;;;14.23;3.17;;;;;;;19.27;38.12;99669.72;5058327;28;20033;-80
2021/05/21 08:43:48;;;;;;;10.73;2.53;;;;;;;19.10;38.31;99676.78;5038852;28;20127;-80
2021/05/21 08:46:14;;;;;;;18.83;3.60;;;;;;;19.20;38.52;99674.41;5057043;28;20504;-80
2021/05/21 08:48:40;;;;;;;14.02;3.50;;;;;;;18.94;38.51;99680.81;5061948;28;20040;-80
2021/05/21 08:51:10;;;;;;;15.68;4.05;;;;;;;19.45;38.92;99663.53;5051237;28;20086;-81
2021/05/21 08:53:38;;;;;;;16.35;3.03;;;;;;;19.48;38.57;99673.19;5036441;28;20037;-80
2021/05/21 08:56:05;;;;;;;7.15;2.05;;;;;;;19.84;38.14;99664.34;5027176;28;20037;-81
2021/05/21 08:58:31;;;;;;;11.07;2.15;;;;;;;19.93;39.11;99673.09;5012236;28;20198;-80
2021/05/21 09:00:59;;;;;;;10.68;2.63;;;;;;;19.24;39.06;99674.78;5061299;28;20048;-81
2021/05/21 09:03:26;;;;;;;11.95;2.30;;;;;;;19.15;39.84;99660.59;5054681;28;20047;-81
2021/05/21 09:06:13;;;;;;;12.18;2.65;;;;;;;19.27;40.50;99667.00;5034182;28;20029;-81
2021/05/21 09:32:23;;;;;;;18.50;3.35;;;;;;;18.12;47.09;99641.44;5074124;28;20398;-82
2021/05/21 09:35:16;;;;;;;14.10;3.03;;;;;;;18.35;46.20;99646.41;5057283;28;20032;-83
2021/05/21 09:37:55;;;;;;;19.48;4.68;;;;;;;18.65;44.59;99633.13;5046246;28;20064;-83
2021/05/21 09:40:28;;;;;;;20.75;5.70;;;;;;;18.46;42.58;99658.56;5051363;28;20048;-83
2021/05/21 09:43:01;;;;;;;22.15;4.28;;;;;;;18.63;43.73;99654.28;5060466;28;20037;-83
2021/05/21 09:45:38;;;;;;;24.48;5.53;;;;;;;18.57;41.73;99652.41;5057678;28;20025;-84
2021/05/21 09:48:08;;;;;;;18.77;3.90;;;;;;;19.03;43.19;99640.53;5058345;28;20028;-83
2021/05/21 09:50:37;;;;;;;18.80;3.67;;;;;;;19.13;41.85;99630.00;5053235;28;20040;-86
2021/05/21 09:53:06;;;;;;;16.27;3.95;;;;;;;19.28;40.95;99637.84;5050594;28;20132;-84
2021/05/21 09:55:35;;;;;;;21.23;4.28;;;;;;;19.45;40.83;99638.19;5048051;28;20104;-83
2021/05/21 09:58:01;;;;;;;14.98;3.85;;;;;;;19.81;40.46;99625.75;5050352;28;20032;-84
2021/05/21 10:00:26;;;;;;;14.05;3.58;;;;;;;19.50;40.54;99624.72;5054267;28;20075;-84
2021/05/21 10:02:52;;;;;;;20.00;4.43;;;;;;;19.48;41.59;99633.09;5050233;28;20485;-84
2021/05/21 10:05:17;;;;;;;20.67;5.15;;;;;;;19.33;41.74;99638.03;5050871;28;20036;-83
2021/05/21 10:07:44;;;;;;;18.15;4.32;;;;;;;19.73;41.66;99640.50;5053830;28;20025;-83
2021/05/21 10:10:10;;;;;;;22.65;5.07;;;;;;;20.18;41.46;99637.59;5049582;28;20025;-83
2021/05/21 10:12:37;;;;;;;28.58;5.53;;;;;;;20.03;38.93;99628.91;5050870;28;20056;-83
2021/05/21 10:15:03;;;;;;;23.25;4.63;;;;;;;19.80;38.78;99634.97;5054172;28;20595;-83
2021/05/21 10:17:29;;;;;;;21.80;5.53;;;;;;;20.00;39.45;99638.38;5057940;28;20029;-83
2021/05/21 10:19:55;;;;;;;25.95;5.90;;;;;;;19.53;39.46;99635.19;5058671;28;20036;-83
2021/05/21 10:22:29;;;;;;;19.75;4.25;;;;;;;19.40;38.64;99648.91;5035539;28;20079;-83
2021/05/21 10:25:06;;;;;;;21.15;4.97;;;;;;;19.10;38.36;99632.31;5061867;28;20076;-83
2021/05/21 10:27:32;;;;;;;25.83;4.93;;;;;;;19.09;39.42;99636.94;5055095;28;20028;-84
2021/05/21 10:30:02;;;;;;;21.65;5.82;;;;;;;19.31;39.79;99631.97;5048487;28;20045;-83
2021/05/21 10:32:30;;;;;;;20.23;4.72;;;;;;;19.45;39.36;99641.72;5057100;28;20064;-83
2021/05/21 10:34:57;;;;;;;23.50;4.88;;;;;;;19.55;38.83;99632.22;5043703;28;20362;-83
2021/05/21 10:37:28;;;;;;;22.35;6.10;;;;;;;19.37;39.53;99638.44;5049196;28;20032;-81
2021/05/21 10:40:05;;;;;;;21.05;5.18;;;;;;;19.26;40.00;99620.91;5064592;28;20444;-82
2021/05/21 10:42:36;;;;;;;20.45;5.30;;;;;;;19.53;39.84;99646.09;5035951;28;20392;-83
2021/05/21 10:45:28;;;;;;;19.50;5.38;;;;;;;19.60;39.10;99624.22;5025860;28;20037;-83
2021/05/21 10:47:57;;;;;;;15.07;3.60;;;;;;;19.86;38.19;99625.91;5025356;28;20195;-82
2021/05/21 10:50:32;;;;;;;22.45;5.13;;;;;;;20.02;37.53;99632.69;5026992;28;20392;-82
2021/05/21 10:53:01;;;;;;;24.02;4.88;;;;;;;20.30;36.86;99627.59;5045630;28;20047;-83
2021/05/21 10:55:53;;;;;;;19.65;4.80;;;;;;;20.23;37.42;99625.97;5035142;28;20090;-83
2021/05/21 10:58:31;;;;;;;15.65;3.38;;;;;;;20.76;37.59;99633.59;5028937;28;20036;-82
2021/05/21 11:01:09;;;;;;;15.18;3.53;;;;;;;20.54;37.84;99625.03;5021713;28;20029;-83
2021/05/21 11:03:54;;;;;;;16.65;3.78;;;;;;;19.80;38.57;99634.97;5030521;28;20456;-83
2021/05/21 11:06:19;;;;;;;13.98;3.60;;;;;;;19.76;40.29;99623.69;5034295;28;20085;-82
2021/05/21 11:08:45;;;;;;;18.35;4.55;;;;;;;19.80;40.48;99635.81;5019308;28;20552;-82
2021/05/21 11:13:47;;;;;;;12.60;3.35;;;;;;;18.91;43.98;99636.81;5148172;22;20057;-85
2021/05/21 11:40:03;;;;;;;17.20;2.03;;;;;;;15.92;66.87;99664.34;5120232;27;20406;-84
2021/05/21 11:42:37;;;;;;;6.35;1.73;;;;;;;15.84;72.69;99661.75;4938676;22;20044;-84
2021/05/21 11:45:13;;;;;;;4.53;1.65;;;;;;;15.95;75.65;99649.53;5056076;28;20063;-84
2021/05/21 11:47:46;;;;;;;5.70;1.92;;;;;;;15.72;70.74;99650.59;5051865;28;20029;-84
2021/05/21 11:50:12;;;;;;;8.57;2.25;;;;;;;15.87;73.56;99655.09;5045290;28;20033;-84
2021/05/21 11:52:45;;;;;;;8.05;1.98;;;;;;;16.00;71.44;99647.88;5027287;23;20135;-84
2021/05/21 11:55:19;;;;;;;7.45;2.13;;;;;;;16.01;72.89;99651.47;5025251;28;20445;-84
2021/05/21 11:57:53;;;;;;;5.57;1.58;;;;;;;15.94;70.86;99645.97;5046744;23;20063;-84
2021/05/21 12:00:33;;;;;;;6.18;1.77;;;;;;;16.18;73.03;99647.38;5049455;28;20028;-84
2021/05/21 12:03:14;;;;;;;5.05;1.55;;;;;;;16.08;70.71;99642.31;5015406;28;20160;-84
2021/05/21 12:16:11;;;;;;;9.32;2.10;;;;;;;15.77;67.60;99669.84;3994653;23;15660058;-84
2021/05/21 12:21:31;;;;;;;13.45;2.88;;;;;;;15.90;71.83;99666.38;4745117;23;20066;-84
2021/05/21 12:49:59;;;;;;;13.35;2.53;;;;;;;16.15;74.46;99647.78;4848286;23;20057;-84
2021/05/21 13:13:09;;;;;;;9.63;2.85;;;;;;;16.53;72.75;99650.94;4257905;23;21220;-84
2021/05/21 13:15:53;;;;;;;7.65;2.58;;;;;;;16.63;73.04;99645.13;4984089;28;20049;-85
2021/05/21 13:18:29;;;;;;;9.70;2.20;;;;;;;16.59;71.58;99646.59;5020521;23;20049;-85